Time;durP1;ratioP1;P1;durP2;ratioP2;P2;SDS_P1;SDS_P2;PMS_P1;PMS_P2;Temp;Humidity;BMP_temperature;BMP_pressure;BME280_temperature;BME280_humidity;BME280_pressure;Samples;Min_cycle;Max_cycle;Signal;HPM_P1;HPM_P2
2023/09/22 00:00:05;;;;;;;9.67;4.73;;;14.60;99.90;;;;;;6160054;23;20197;-90
2023/09/22 00:02:31;;;;;;;8.03;4.57;;;14.60;99.90;;;;;;6207901;23;20197;-90
2023/09/22 00:04:57;;;;;;;6.37;3.97;;;14.60;99.90;;;;;;6183615;23;20173;-90
2023/09/22 00:07:23;;;;;;;7.23;4.27;;;14.60;99.90;;;;;;6208788;23;20194;-91
2023/09/22 00:09:49;;;;;;;10.57;4.97;;;14.50;99.90;;;;;;6159019;23;20201;-91
2023/09/22 00:12:15;;;;;;;4.70;4.23;;;14.50;99.90;;;;;;6184390;23;20205;-90
2023/09/22 00:14:41;;;;;;;5.33;3.30;;;14.50;99.90;;;;;;6160130;23;20733;-90
2023/09/22 00:17:06;;;;;;;5.23;3.50;;;14.50;99.90;;;;;;6209860;23;20484;-91
2023/09/22 00:19:32;;;;;;;5.53;4.10;;;14.50;99.90;;;;;;6161019;23;20217;-90
2023/09/22 00:21:58;;;;;;;4.53;2.53;;;14.50;99.90;;;;;;6159929;23;20194;-90
2023/09/22 00:24:24;;;;;;;4.20;2.90;;;14.40;99.90;;;;;;6208969;23;20225;-90
2023/09/22 00:26:49;;;;;;;5.80;3.53;;;14.40;99.90;;;;;;6159135;23;20206;-90
2023/09/22 00:29:15;;;;;;;4.73;2.97;;;14.30;99.90;;;;;;6158901;23;20185;-90
2023/09/22 00:31:41;;;;;;;4.97;3.23;;;14.40;99.90;;;;;;6159256;23;20252;-91
2023/09/22 00:34:08;;;;;;;4.93;2.70;;;14.50;99.90;;;;;;6158556;23;20194;-91
2023/09/22 00:36:34;;;;;;;5.60;3.00;;;14.50;99.90;;;;;;6158520;23;20235;-91
2023/09/22 00:39:00;;;;;;;4.23;2.10;;;14.60;99.90;;;;;;6182952;23;20226;-91
2023/09/22 00:41:25;;;;;;;4.93;2.67;;;14.70;99.90;;;;;;6158323;23;20200;-90
2023/09/22 00:43:51;;;;;;;2.10;1.70;;;14.70;99.90;;;;;;6183908;23;20580;-92
2023/09/22 00:46:21;;;;;;;6.30;3.70;;;14.60;99.90;;;;;;6183969;23;20197;-89
2023/09/22 00:48:49;;;;;;;5.70;3.30;;;14.60;99.90;;;;;;6208422;23;20722;-90
2023/09/22 00:51:19;;;;;;;8.03;3.33;;;14.60;99.90;;;;;;6159822;23;21095;-90
2023/09/22 00:53:47;;;;;;;9.07;3.50;;;14.60;99.90;;;;;;6234581;23;20714;-90
2023/09/22 00:56:19;;;;;;;4.20;3.33;;;14.70;99.90;;;;;;6209669;23;20614;-90
2023/09/22 00:58:45;;;;;;;5.50;3.30;;;14.80;99.90;;;;;;6186869;23;20170;-90
2023/09/22 01:01:11;;;;;;;10.77;4.57;;;14.80;99.90;;;;;;6183944;23;20220;-90
2023/09/22 01:03:37;;;;;;;4.43;3.27;;;14.90;99.90;;;;;;6186130;23;20197;-90
2023/09/22 01:06:03;;;;;;;8.97;3.30;;;14.80;99.90;;;;;;6160018;23;20197;-90
2023/09/22 01:08:28;;;;;;;6.83;4.23;;;14.80;99.90;;;;;;6211035;23;20204;-90
2023/09/22 01:10:54;;;;;;;7.50;3.33;;;14.90;99.90;;;;;;6160763;23;20505;-90
2023/09/22 01:13:20;;;;;;;6.77;3.53;;;14.90;99.90;;;;;;6161017;23;20194;-89
2023/09/22 01:15:46;;;;;;;2.90;2.50;;;14.80;99.90;;;;;;6186038;23;20662;-89
2023/09/22 01:18:13;;;;;;;4.93;3.50;;;14.80;99.90;;;;;;6184545;23;20190;-90
2023/09/22 01:20:48;;;;;;;4.17;3.30;;;14.80;99.90;;;;;;6185790;23;20197;-90
2023/09/22 01:23:14;;;;;;;4.63;2.40;;;14.80;99.90;;;;;;6185745;23;20210;-90
2023/09/22 01:25:43;;;;;;;8.10;3.20;;;14.90;99.90;;;;;;6162569;23;20209;-90
2023/09/22 01:28:10;;;;;;;5.20;3.57;;;14.80;99.90;;;;;;6185744;23;20876;-90
2023/09/22 01:30:36;;;;;;;5.83;2.93;;;14.80;99.90;;;;;;6185121;23;20213;-90
2023/09/22 01:33:03;;;;;;;6.33;2.97;;;14.80;99.90;;;;;;6184942;23;20198;-90
2023/09/22 01:35:32;;;;;;;8.57;3.90;;;14.90;99.90;;;;;;6184254;23;20225;-90
2023/09/22 01:38:07;;;;;;;6.50;2.97;;;14.80;99.90;;;;;;6184825;23;20158;-91
2023/09/22 01:40:33;;;;;;;5.97;3.80;;;14.80;99.90;;;;;;6236160;23;20795;-90
2023/09/22 01:42:58;;;;;;;15.10;4.97;;;14.80;99.90;;;;;;6185192;23;20205;-90
2023/09/22 01:45:24;;;;;;;5.47;2.83;;;14.70;99.90;;;;;;6160006;23;20202;-90
2023/09/22 01:47:50;;;;;;;5.27;2.93;;;14.70;99.90;;;;;;6159714;23;20280;-90
2023/09/22 01:50:16;;;;;;;7.63;3.23;;;14.70;99.90;;;;;;6160211;23;20272;-90
2023/09/22 01:52:41;;;;;;;5.73;2.67;;;14.70;99.90;;;;;;6186205;23;20173;-90
2023/09/22 01:55:07;;;;;;;7.73;3.03;;;14.60;99.90;;;;;;6160159;23;20240;-90
2023/09/22 01:57:33;;;;;;;5.30;3.63;;;14.50;99.90;;;;;;6184132;23;20202;-90
2023/09/22 01:59:59;;;;;;;4.70;2.90;;;14.50;99.90;;;;;;6184448;23;20198;-91
2023/09/22 02:02:24;;;;;;;6.00;2.57;;;14.40;99.90;;;;;;6185129;23;20205;-90
2023/09/22 02:04:50;;;;;;;5.03;2.80;;;14.40;99.90;;;;;;6185606;23;20154;-90
2023/09/22 02:07:17;;;;;;;3.50;2.03;;;14.50;99.90;;;;;;6159623;23;20204;-89
2023/09/22 02:09:43;;;;;;;5.50;3.47;;;14.50;99.90;;;;;;6159783;23;20596;-90
2023/09/22 02:12:09;;;;;;;7.03;3.23;;;14.50;99.90;;;;;;6184311;23;20297;-90
2023/09/22 02:14:35;;;;;;;4.50;3.10;;;14.60;99.90;;;;;;6184275;23;20209;-91
2023/09/22 02:17:00;;;;;;;5.00;4.47;;;14.60;99.90;;;;;;6184986;23;20169;-90
2023/09/22 02:19:26;;;;;;;5.73;4.70;;;14.70;99.90;;;;;;6210650;23;20166;-90
2023/09/22 02:21:52;;;;;;;8.40;4.10;;;14.70;99.90;;;;;;6184626;23;20209;-89
2023/09/22 02:24:18;;;;;;;7.10;4.00;;;14.70;99.90;;;;;;6184316;23;20213;-90
2023/09/22 02:26:43;;;;;;;6.83;3.50;;;14.70;99.90;;;;;;6159092;23;20190;-90
2023/09/22 02:29:09;;;;;;;5.33;3.70;;;14.70;99.90;;;;;;6159542;23;20178;-89
2023/09/22 02:31:35;;;;;;;6.27;3.87;;;14.60;99.90;;;;;;6159547;23;20189;-90
2023/09/22 02:34:01;;;;;;;9.80;3.97;;;14.70;99.90;;;;;;6158867;23;20655;-89
2023/09/22 02:36:28;;;;;;;5.80;3.43;;;14.50;99.90;;;;;;6159358;23;20194;-90
2023/09/22 02:38:53;;;;;;;5.27;3.23;;;14.40;99.90;;;;;;6159671;23;20197;-89
2023/09/22 02:41:19;;;;;;;5.50;3.50;;;14.30;99.90;;;;;;6159917;23;20525;-90
2023/09/22 02:43:45;;;;;;;5.07;3.57;;;14.30;99.90;;;;;;6184668;23;20165;-90
2023/09/22 02:46:11;;;;;;;4.43;2.33;;;14.20;99.90;;;;;;6158870;23;20269;-89
2023/09/22 02:48:37;;;;;;;6.50;3.33;;;14.10;99.90;;;;;;6157972;23;20216;-89
2023/09/22 02:51:07;;;;;;;4.17;2.57;;;14.00;99.90;;;;;;6208973;23;20205;-90
2023/09/22 02:53:33;;;;;;;7.80;4.17;;;14.00;99.90;;;;;;6183630;23;20189;-90
2023/09/22 02:56:08;;;;;;;3.40;2.53;;;14.00;99.90;;;;;;6159241;23;20596;-90
2023/09/22 02:58:34;;;;;;;5.27;3.37;;;13.90;99.90;;;;;;6161519;23;20162;-89
2023/09/22 03:01:00;;;;;;;5.30;3.63;;;13.90;99.90;;;;;;6158436;23;20651;-90
2023/09/22 03:03:26;;;;;;;4.00;2.20;;;13.80;99.90;;;;;;6158688;23;20232;-90
2023/09/22 03:05:51;;;;;;;2.87;2.60;;;13.80;99.90;;;;;;6183308;23;20280;-89
2023/09/22 03:08:17;;;;;;;4.13;2.47;;;13.70;99.90;;;;;;6183583;23;20221;-90
2023/09/22 03:10:43;;;;;;;3.83;2.67;;;13.70;99.90;;;;;;6209394;23;20186;-90
2023/09/22 03:13:09;;;;;;;3.43;2.17;;;13.70;99.90;;;;;;6183437;23;20208;-90
2023/09/22 03:15:35;;;;;;;4.90;2.83;;;13.70;99.90;;;;;;6159164;23;20693;-89
2023/09/22 03:18:03;;;;;;;3.20;2.90;;;13.60;99.90;;;;;;6184238;23;20559;-89
2023/09/22 03:20:29;;;;;;;6.30;3.50;;;13.70;99.90;;;;;;6208690;23;20273;-89
2023/09/22 03:22:54;;;;;;;5.10;3.93;;;13.70;99.90;;;;;;6183923;23;20604;-90
2023/09/22 03:25:20;;;;;;;7.67;3.53;;;13.60;99.90;;;;;;6158571;23;20531;-90
2023/09/22 03:27:46;;;;;;;2.53;2.20;;;13.60;99.90;;;;;;6183027;23;20209;-90
2023/09/22 03:30:12;;;;;;;3.83;3.00;;;13.70;99.90;;;;;;6183078;23;20198;-90
2023/09/22 03:32:39;;;;;;;3.80;3.20;;;13.60;99.90;;;;;;6183084;23;20789;-89
2023/09/22 03:35:06;;;;;;;4.10;2.60;;;13.60;99.90;;;;;;6183688;23;20170;-90
2023/09/22 03:37:33;;;;;;;2.93;2.20;;;13.60;99.90;;;;;;6160037;23;20245;-90
2023/09/22 03:40:20;;;;;;;2.27;1.83;;;13.60;99.90;;;;;;6208309;23;20236;-90
2023/09/22 03:42:46;;;;;;;2.53;1.77;;;13.50;99.90;;;;;;6166478;23;20193;-90
2023/09/22 03:45:12;;;;;;;4.40;2.20;;;13.50;99.90;;;;;;6158236;23;20284;-90
2023/09/22 03:47:39;;;;;;;3.83;2.30;;;13.50;99.90;;;;;;6183193;23;20185;-90
2023/09/22 03:50:05;;;;;;;2.70;2.30;;;13.40;99.90;;;;;;6183452;23;20262;-90
2023/09/22 03:52:31;;;;;;;4.40;2.10;;;13.30;99.90;;;;;;6159762;23;20159;-90
2023/09/22 03:54:57;;;;;;;2.70;2.23;;;13.30;99.90;;;;;;6158917;23;20295;-91
2023/09/22 03:57:22;;;;;;;3.80;2.87;;;13.10;99.90;;;;;;6158110;23;20213;-90
2023/09/22 03:59:49;;;;;;;2.80;1.70;;;13.10;99.90;;;;;;6158822;23;20217;-90
2023/09/22 04:02:15;;;;;;;3.50;2.73;;;13.00;99.90;;;;;;6158888;23;20166;-89
2023/09/22 04:04:40;;;;;;;2.47;1.97;;;13.00;99.90;;;;;;6159769;23;20162;-90
2023/09/22 04:07:06;;;;;;;4.20;2.47;;;12.90;99.90;;;;;;6182875;23;20193;-90
2023/09/22 04:09:32;;;;;;;3.47;2.13;;;13.00;99.90;;;;;;6183101;23;20205;-90
2023/09/22 04:11:58;;;;;;;4.00;1.97;;;13.00;99.90;;;;;;6158427;23;20197;-90
2023/09/22 04:14:24;;;;;;;3.03;2.10;;;12.90;99.90;;;;;;6158356;23;20649;-90
2023/09/22 04:16:50;;;;;;;3.30;2.57;;;13.00;99.90;;;;;;6159644;23;20168;-91
2023/09/22 04:19:15;;;;;;;2.33;1.70;;;13.00;99.90;;;;;;6182871;23;20198;-89
2023/09/22 04:21:46;;;;;;;3.60;1.93;;;13.10;99.90;;;;;;6183294;23;20666;-90
2023/09/22 04:24:12;;;;;;;3.30;2.63;;;13.20;99.90;;;;;;6159368;23;20197;-90
2023/09/22 04:26:44;;;;;;;3.80;2.93;;;13.20;99.90;;;;;;6158780;23;20219;-90
2023/09/22 04:29:10;;;;;;;5.20;3.13;;;13.30;99.90;;;;;;6183592;23;20176;-90
2023/09/22 04:31:36;;;;;;;2.87;2.47;;;13.40;99.90;;;;;;6159258;23;20777;-91
2023/09/22 04:34:03;;;;;;;4.50;3.80;;;13.50;99.90;;;;;;6185045;23;20198;-91
2023/09/22 04:36:30;;;;;;;3.90;2.67;;;13.60;99.90;;;;;;6186565;23;20498;-91
2023/09/22 04:38:56;;;;;;;8.47;3.43;;;13.60;99.90;;;;;;6162229;23;20189;-90
2023/09/22 04:41:22;;;;;;;8.63;3.60;;;13.60;99.90;;;;;;6186589;23;20296;-90
2023/09/22 04:43:48;;;;;;;8.53;3.90;;;13.70;99.90;;;;;;6162345;23;20164;-90
2023/09/22 04:46:19;;;;;;;4.73;2.93;;;13.70;99.90;;;;;;6211124;23;20200;-91
2023/09/22 04:48:46;;;;;;;10.47;4.00;;;13.70;99.90;;;;;;6187970;23;20202;-91
2023/09/22 04:51:14;;;;;;;7.97;3.00;;;13.80;99.90;;;;;;6186266;23;20741;-91
2023/09/22 04:53:41;;;;;;;4.43;3.23;;;13.80;99.90;;;;;;6161581;23;20190;-89
2023/09/22 04:56:08;;;;;;;5.13;3.20;;;13.70;99.90;;;;;;6186527;23;20162;-90
2023/09/22 04:58:37;;;;;;;5.27;3.40;;;13.70;99.90;;;;;;6187350;23;20185;-89
2023/09/22 05:01:03;;;;;;;7.37;3.67;;;13.70;99.90;;;;;;6186921;23;20197;-90
2023/09/22 05:03:29;;;;;;;7.20;3.90;;;13.70;99.90;;;;;;6185495;23;20205;-90
2023/09/22 05:06:04;;;;;;;6.10;3.57;;;13.80;99.90;;;;;;6211208;23;20204;-91
2023/09/22 05:08:31;;;;;;;6.47;3.63;;;13.70;99.90;;;;;;6186530;23;20243;-90
2023/09/22 05:10:57;;;;;;;4.93;3.17;;;13.80;99.90;;;;;;6161770;23;20186;-89
2023/09/22 05:13:23;;;;;;;5.80;3.63;;;13.80;99.90;;;;;;6186538;23;20182;-89
2023/09/22 05:15:49;;;;;;;5.97;3.63;;;13.80;99.90;;;;;;6161246;23;20194;-90
2023/09/22 05:18:15;;;;;;;7.50;3.40;;;13.80;99.90;;;;;;6161226;23;20197;-90
2023/09/22 05:20:41;;;;;;;3.93;3.00;;;13.80;99.90;;;;;;6185672;23;20197;-90
2023/09/22 05:23:08;;;;;;;9.50;4.43;;;13.80;99.90;;;;;;6161937;23;20169;-90
2023/09/22 05:25:41;;;;;;;7.30;4.57;;;13.80;99.90;;;;;;6162951;23;20158;-90
2023/09/22 05:28:08;;;;;;;4.70;2.90;;;13.80;99.90;;;;;;6211570;23;20206;-91
2023/09/22 05:30:38;;;;;;;5.33;3.83;;;13.80;99.90;;;;;;6186060;23;20288;-91
2023/09/22 05:33:07;;;;;;;5.60;4.27;;;13.90;99.90;;;;;;6163877;23;20209;-90
2023/09/22 05:35:36;;;;;;;3.27;2.70;;;13.90;99.90;;;;;;6188279;23;20255;-91
2023/09/22 05:38:03;;;;;;;6.00;3.70;;;14.00;99.90;;;;;;6211715;23;20150;-90
2023/09/22 05:40:35;;;;;;;6.27;5.30;;;14.20;99.90;;;;;;6212205;23;20161;-91
2023/09/22 05:43:10;;;;;;;5.70;3.50;;;14.40;99.90;;;;;;6188631;23;20713;-90
2023/09/22 05:45:36;;;;;;;5.73;3.33;;;14.30;99.90;;;;;;6161685;23;20201;-91
2023/09/22 05:48:02;;;;;;;6.33;4.20;;;14.30;99.90;;;;;;6185750;23;20190;-91
2023/09/22 05:50:28;;;;;;;5.37;3.23;;;14.40;99.90;;;;;;6159688;23;20190;-91
2023/09/22 05:52:54;;;;;;;7.87;5.07;;;14.30;99.90;;;;;;6160661;23;20668;-90
2023/09/22 05:55:20;;;;;;;5.03;3.23;;;14.20;99.90;;;;;;6184395;23;20302;-90
2023/09/22 05:57:51;;;;;;;6.73;4.10;;;14.20;99.90;;;;;;6208669;23;20225;-91
2023/09/22 06:00:17;;;;;;;14.40;3.80;;;14.20;99.90;;;;;;6160872;23;20194;-90
2023/09/22 06:02:53;;;;;;;7.47;4.63;;;14.10;99.90;;;;;;6184995;23;20616;-90
2023/09/22 06:05:20;;;;;;;6.30;3.50;;;14.10;99.90;;;;;;6184359;23;20185;-89
2023/09/22 06:07:46;;;;;;;6.63;4.70;;;14.00;99.90;;;;;;6160574;23;20192;-90
2023/09/22 06:10:12;;;;;;;6.40;3.50;;;14.10;99.90;;;;;;6208554;23;20217;-86
2023/09/22 06:12:38;;;;;;;7.73;4.57;;;14.10;99.90;;;;;;6158941;23;20225;-87
2023/09/22 06:15:08;;;;;;;6.17;4.07;;;14.00;99.90;;;;;;6159459;23;20234;-88
2023/09/22 06:17:37;;;;;;;6.20;4.40;;;14.00;99.90;;;;;;6183544;23;20190;-88
2023/09/22 06:20:15;;;;;;;7.23;3.70;;;14.00;99.90;;;;;;6159035;23;20583;-87
2023/09/22 06:22:47;;;;;;;6.37;4.80;;;14.20;99.90;;;;;;6209458;23;20510;-88
2023/09/22 06:25:16;;;;;;;9.63;5.03;;;14.20;99.90;;;;;;6209143;23;21074;-87
2023/09/22 06:27:43;;;;;;;10.07;5.13;;;14.40;99.90;;;;;;6160465;23;20221;-88
2023/09/22 06:30:12;;;;;;;14.43;5.57;;;14.60;99.90;;;;;;6184337;23;20202;-88
2023/09/22 06:32:42;;;;;;;23.07;6.30;;;14.50;99.90;;;;;;6185804;23;20197;-91
2023/09/22 06:35:09;;;;;;;15.37;4.77;;;14.40;99.90;;;;;;6211812;23;20197;-91
2023/09/22 06:37:37;;;;;;;8.90;4.40;;;14.30;99.90;;;;;;6185250;23;20158;-91
2023/09/22 06:40:11;;;;;;;7.77;5.10;;;14.40;99.90;;;;;;6209252;23;20268;-90
2023/09/22 06:42:46;;;;;;;12.67;7.40;;;14.70;99.90;;;;;;6186459;23;20328;-88
2023/09/22 06:45:12;;;;;;;14.93;5.03;;;14.80;99.90;;;;;;6186651;23;20288;-88
2023/09/22 06:47:41;;;;;;;10.77;6.23;;;14.50;99.90;;;;;;6184558;23;20251;-91
2023/09/22 06:50:09;;;;;;;7.63;5.23;;;14.50;99.90;;;;;;6159856;23;20162;-89
2023/09/22 06:52:41;;;;;;;14.67;6.10;;;15.50;99.90;;;;;;6185391;23;20254;-87
2023/09/22 06:55:13;;;;;;;20.40;7.63;;;16.50;99.90;;;;;;6208747;23;20276;-87
2023/09/22 06:57:41;;;;;;;25.30;9.77;;;17.10;99.90;;;;;;6183790;23;20240;-88
2023/09/22 07:00:15;;;;;;;27.03;10.67;;;18.50;99.90;;;;;;6184082;23;20210;-88
2023/09/22 07:02:42;;;;;;;23.23;8.27;;;19.20;99.90;;;;;;6162625;23;20741;-91
2023/09/22 07:05:09;;;;;;;13.30;7.33;;;18.50;99.90;;;;;;6160935;23;20211;-92
2023/09/22 07:07:37;;;;;;;12.50;7.40;;;17.80;99.90;;;;;;6185817;23;20162;-90
2023/09/22 07:10:09;;;;;;;9.13;5.50;;;17.20;99.90;;;;;;6160087;23;20295;-90
2023/09/22 07:12:36;;;;;;;13.03;6.63;;;16.70;99.90;;;;;;6185121;23;20217;-89
2023/09/22 07:15:04;;;;;;;12.27;7.60;;;16.60;99.90;;;;;;6159930;23;20209;-89
2023/09/22 07:17:31;;;;;;;8.87;4.30;;;16.70;99.90;;;;;;6184974;23;20706;-89
2023/09/22 07:20:01;;;;;;;9.40;6.00;;;16.90;99.90;;;;;;6185092;23;20166;-88
2023/09/22 07:22:31;;;;;;;10.47;7.80;;;17.00;99.90;;;;;;6210284;23;20166;-89
2023/09/22 07:24:57;;;;;;;11.30;7.03;;;17.40;99.90;;;;;;6183928;23;20198;-90
2023/09/22 07:27:23;;;;;;;14.47;6.73;;;18.20;99.90;;;;;;6158869;23;20288;-89
2023/09/22 07:29:52;;;;;;;9.03;6.23;;;18.60;99.90;;;;;;6159397;23;20194;-89
2023/09/22 07:32:19;;;;;;;15.00;6.63;;;18.40;99.90;;;;;;6184811;23;20726;-90
2023/09/22 07:34:45;;;;;;;8.67;4.90;;;18.50;99.90;;;;;;6185538;23;20492;-90
2023/09/22 07:37:17;;;;;;;10.87;6.57;;;18.90;99.90;;;;;;6184208;23;20204;-91
2023/09/22 07:39:43;;;;;;;9.03;5.70;;;19.20;99.90;;;;;;6209096;23;20198;-91
2023/09/22 07:42:10;;;;;;;10.37;5.60;;;19.10;99.90;;;;;;6185026;23;20193;-92
2023/09/22 07:44:36;;;;;;;11.50;5.93;;;18.70;99.90;;;;;;6183991;23;20256;-91
2023/09/22 07:47:09;;;;;;;7.87;5.73;;;18.80;99.90;;;;;;6184204;23;20577;-92
2023/09/22 07:49:40;;;;;;;10.17;5.83;;;18.80;99.90;;;;;;6186346;23;20209;-92
2023/09/22 07:52:10;;;;;;;11.53;6.37;;;19.20;99.90;;;;;;6208667;23;20202;-90
2023/09/22 07:54:37;;;;;;;8.87;5.97;;;19.00;99.90;;;;;;6208955;23;20237;-90
2023/09/22 07:57:03;;;;;;;8.93;5.33;;;19.40;99.90;;;;;;6183700;23;20686;-92
2023/09/22 07:59:30;;;;;;;11.97;5.77;;;19.70;99.90;;;;;;6158613;23;20193;-89
2023/09/22 08:01:59;;;;;;;7.83;4.33;;;19.50;99.90;;;;;;6184412;23;20252;-87
2023/09/22 08:04:25;;;;;;;9.13;3.80;;;19.60;99.90;;;;;;6184987;23;20705;-88
2023/09/22 08:06:50;;;;;;;5.67;3.57;;;18.90;99.90;;;;;;6159025;23;20241;-91
2023/09/22 08:09:16;;;;;;;4.70;3.43;;;18.20;99.90;;;;;;6158629;23;20581;-92
2023/09/22 08:11:42;;;;;;;5.73;3.77;;;17.80;99.90;;;;;;6159077;23;20309;-91
2023/09/22 08:14:09;;;;;;;3.80;3.13;;;17.40;99.90;;;;;;6183707;23;20166;-90
2023/09/22 08:16:35;;;;;;;10.17;3.20;;;17.20;99.90;;;;;;6159588;23;20162;-90
2023/09/22 08:19:01;;;;;;;7.03;3.60;;;17.20;99.90;;;;;;6182956;23;20204;-90
2023/09/22 08:21:27;;;;;;;4.23;3.20;;;17.50;99.90;;;;;;6182991;23;20198;-89
2023/09/22 08:23:52;;;;;;;4.50;3.13;;;17.70;99.90;;;;;;6208442;23;20198;-89
2023/09/22 08:26:18;;;;;;;4.73;3.13;;;17.90;99.90;;;;;;6158506;23;20631;-89
2023/09/22 08:28:45;;;;;;;10.23;3.67;;;18.00;99.90;;;;;;6184276;23;20162;-90
2023/09/22 08:31:11;;;;;;;4.97;3.50;;;18.50;99.90;;;;;;6183671;23;20629;-89
2023/09/22 08:33:38;;;;;;;8.97;3.93;;;18.60;99.90;;;;;;6183158;23;21121;-89
2023/09/22 08:36:04;;;;;;;3.03;2.73;;;18.50;99.90;;;;;;6158442;23;20194;-90
2023/09/22 08:38:31;;;;;;;10.10;4.00;;;18.60;99.90;;;;;;6158194;23;20194;-89
2023/09/22 08:40:59;;;;;;;4.13;2.90;;;19.60;99.90;;;;;;6183630;23;20166;-89
2023/09/22 08:43:26;;;;;;;3.43;2.50;;;20.70;99.90;;;;;;6209100;23;20161;-88
2023/09/22 08:45:52;;;;;;;2.97;2.67;;;21.20;99.90;;;;;;6184306;23;20516;-87
2023/09/22 08:48:18;;;;;;;6.37;2.50;;;22.00;99.90;;;;;;6183288;23;20193;-88
2023/09/22 08:50:45;;;;;;;4.63;2.47;;;21.40;99.90;;;;;;6158539;23;20209;-88
2023/09/22 08:53:11;;;;;;;5.50;2.30;;;21.80;99.90;;;;;;6184664;23;20162;-89
2023/09/22 08:55:38;;;;;;;2.63;2.43;;;22.20;99.90;;;;;;6159026;23;20260;-88
2023/09/22 08:58:04;;;;;;;2.20;2.00;;;22.80;99.90;;;;;;6158793;23;20573;-87
2023/09/22 09:00:30;;;;;;;2.17;1.80;;;23.30;99.90;;;;;;6182706;23;20244;-89
2023/09/22 09:03:05;;;;;;;4.13;1.95;;;22.60;99.90;;;;;;6183272;23;20213;-88
2023/09/22 09:05:32;;;;;;;2.07;1.97;;;21.00;99.90;;;;;;6207528;23;20189;-91
2023/09/22 09:08:24;;;;;;;2.33;2.00;;;19.50;99.90;;;;;;6182954;23;20158;-87
2023/09/22 09:10:50;;;;;;;3.00;1.70;;;19.10;99.90;;;;;;6198768;23;20201;-89
2023/09/22 09:13:18;;;;;;;2.00;1.80;;;19.00;99.90;;;;;;6208468;23;20194;-89
2023/09/22 09:15:45;;;;;;;2.33;2.13;;;18.70;99.90;;;;;;6206872;23;20198;-89
2023/09/22 09:18:13;;;;;;;2.33;2.03;;;18.40;99.90;;;;;;6182186;23;20194;-89
2023/09/22 09:20:43;;;;;;;2.73;2.33;;;18.30;99.90;;;;;;6207652;23;20208;-88
2023/09/22 09:23:21;;;;;;;2.07;1.77;;;18.20;99.90;;;;;;6209608;23;20169;-88
2023/09/22 09:25:54;;;;;;;3.63;2.10;;;18.20;99.90;;;;;;6209135;23;20150;-88
2023/09/22 09:28:21;;;;;;;3.10;2.17;;;18.10;99.90;;;;;;6184635;23;20737;-88
2023/09/22 09:30:52;;;;;;;4.37;2.70;;;17.90;99.90;;;;;;6159129;23;20325;-89
2023/09/22 09:33:25;;;;;;;2.33;2.10;;;17.80;99.90;;;;;;6233848;23;20201;-88
2023/09/22 09:35:52;;;;;;;2.53;1.77;;;17.80;99.90;;;;;;6209560;23;20265;-88
2023/09/22 09:38:29;;;;;;;3.37;2.23;;;17.80;99.90;;;;;;6183982;23;20244;-88
2023/09/22 09:40:56;;;;;;;2.60;2.30;;;17.70;99.90;;;;;;6210197;23;20150;-88
2023/09/22 09:43:25;;;;;;;4.70;2.00;;;17.60;99.90;;;;;;6185148;23;20248;-88
2023/09/22 09:45:59;;;;;;;2.40;2.00;;;17.40;99.90;;;;;;6160060;23;20198;-88
2023/09/22 09:48:26;;;;;;;3.90;2.50;;;17.90;99.90;;;;;;6209100;23;20202;-89
2023/09/22 09:50:54;;;;;;;2.30;2.10;;;18.30;99.90;;;;;;6159625;23;20600;-89
2023/09/22 09:53:27;;;;;;;1.80;1.70;;;19.20;99.90;;;;;;6209037;23;20201;-88
2023/09/22 09:56:00;;;;;;;1.63;1.50;;;19.30;99.90;;;;;;6235007;23;20236;-88
2023/09/22 09:58:28;;;;;;;1.30;1.20;;;18.60;99.90;;;;;;6209526;23;20185;-87
2023/09/22 10:00:56;;;;;;;1.90;1.80;;;18.20;99.90;;;;;;6184689;23;20273;-89
2023/09/22 10:03:24;;;;;;;1.13;1.13;;;18.00;99.90;;;;;;6209517;23;20555;-87
2023/09/22 10:05:51;;;;;;;2.20;1.40;;;17.90;99.90;;;;;;6208403;23;20193;-87
2023/09/22 10:08:20;;;;;;;1.60;1.50;;;18.30;99.90;;;;;;6208730;23;20255;-88
2023/09/22 10:10:48;;;;;;;4.93;2.13;;;18.30;99.90;;;;;;6185191;23;20194;-87
2023/09/22 10:13:14;;;;;;;1.87;1.70;;;18.20;99.90;;;;;;6210251;23;20198;-88
2023/09/22 10:16:04;;;;;;;1.80;1.10;;;17.90;99.90;;;;;;6183906;23;20284;-87
2023/09/22 10:18:46;;;;;;;1.40;1.30;;;17.80;99.90;;;;;;6208359;23;20553;-88
2023/09/22 10:21:36;;;;;;;2.07;1.47;;;18.40;99.90;;;;;;6234065;23;20206;-87
2023/09/22 10:24:16;;;;;;;1.17;1.07;;;18.50;99.90;;;;;;6208259;23;20194;-85
2023/09/22 10:26:54;;;;;;;1.37;1.27;;;18.50;99.90;;;;;;6207520;23;20252;-85
2023/09/22 10:29:35;;;;;;;1.03;1.03;;;18.20;99.90;;;;;;6232684;23;20276;-84
2023/09/22 10:32:18;;;;;;;2.03;1.30;;;18.00;99.90;;;;;;6232894;23;20178;-86
2023/09/22 10:34:51;;;;;;;1.03;0.87;;;17.80;99.90;;;;;;6234185;23;20923;-86
2023/09/22 10:37:18;;;;;;;1.03;1.00;;;17.60;99.90;;;;;;6207963;23;20197;-86
2023/09/22 10:39:56;;;;;;;1.10;1.07;;;17.40;99.90;;;;;;6182811;23;21011;-86
2023/09/22 10:42:24;;;;;;;1.13;1.03;;;17.30;99.90;;;;;;6208403;23;20216;-85
2023/09/22 10:45:01;;;;;;;3.77;1.53;;;17.00;99.90;;;;;;6209439;23;20275;-85
2023/09/22 10:47:44;;;;;;;3.73;1.40;;;17.00;99.90;;;;;;6207584;23;20186;-86
2023/09/22 10:50:19;;;;;;;1.43;1.30;;;17.10;99.90;;;;;;6183484;23;20595;-86
2023/09/22 10:53:03;;;;;;;4.60;1.53;;;17.50;99.90;;;;;;6207669;23;20196;-86
2023/09/22 10:55:30;;;;;;;1.90;1.67;;;17.80;99.90;;;;;;6232836;23;20221;-85
2023/09/22 10:57:57;;;;;;;3.23;2.17;;;17.60;99.90;;;;;;6233138;23;20220;-85
2023/09/22 11:00:23;;;;;;;2.83;1.67;;;17.50;99.90;;;;;;6207757;23;20201;-85
2023/09/22 11:02:49;;;;;;;2.97;1.70;;;17.40;99.90;;;;;;6208110;23;20269;-86
2023/09/22 11:05:16;;;;;;;1.83;1.63;;;17.20;99.90;;;;;;6183638;23;20162;-87
2023/09/22 11:07:42;;;;;;;1.83;1.37;;;17.40;99.90;;;;;;6184010;23;20162;-86
2023/09/22 11:10:10;;;;;;;1.60;1.50;;;17.60;99.90;;;;;;6182919;23;20661;-85
2023/09/22 11:12:35;;;;;;;3.47;1.53;;;17.90;99.90;;;;;;6183190;23;20267;-85
2023/09/22 11:15:05;;;;;;;1.00;1.00;;;18.20;99.90;;;;;;6158324;23;20661;-87
2023/09/22 11:17:42;;;;;;;1.30;1.20;;;18.10;99.90;;;;;;6210012;23;20193;-88
2023/09/22 11:20:14;;;;;;;2.10;1.63;;;18.00;99.90;;;;;;6210436;23;20161;-87
2023/09/22 11:22:41;;;;;;;1.33;1.10;;;17.80;99.90;;;;;;6166730;23;20594;-87
2023/09/22 11:25:09;;;;;;;1.40;1.27;;;17.30;99.90;;;;;;6187480;23;20284;-87
2023/09/22 11:27:50;;;;;;;1.40;1.20;;;17.10;99.90;;;;;;6213001;23;20967;-88
2023/09/22 11:30:25;;;;;;;2.00;1.13;;;17.00;99.90;;;;;;6188684;23;20205;-87
2023/09/22 11:32:52;;;;;;;1.47;1.37;;;17.00;99.90;;;;;;6213378;23;20581;-87
2023/09/22 11:35:33;;;;;;;1.60;1.50;;;17.00;99.90;;;;;;6212253;23;20197;-87
2023/09/22 11:38:01;;;;;;;1.63;1.20;;;16.90;99.90;;;;;;6213409;23;20154;-87
2023/09/22 11:40:37;;;;;;;1.50;1.40;;;17.00;99.90;;;;;;6163816;23;20150;-87
2023/09/22 11:43:04;;;;;;;3.23;1.60;;;17.50;99.90;;;;;;6211768;23;20312;-87
2023/09/22 11:45:29;;;;;;;1.73;1.50;;;17.90;99.90;;;;;;6162739;23;20202;-88
2023/09/22 11:48:05;;;;;;;2.37;1.43;;;18.10;99.90;;;;;;6211164;23;20886;-86
2023/09/22 11:50:32;;;;;;;2.10;1.90;;;18.30;99.90;;;;;;6230539;23;20264;-86
2023/09/22 11:53:17;;;;;;;1.80;1.70;;;18.40;99.90;;;;;;6207608;23;20162;-87
2023/09/22 11:55:50;;;;;;;1.57;1.33;;;18.40;99.90;;;;;;6159685;23;20209;-87
2023/09/22 11:58:16;;;;;;;1.30;1.20;;;18.20;99.90;;;;;;6182950;23;20540;-85
2023/09/22 12:00:43;;;;;;;1.30;1.20;;;18.50;99.90;;;;;;6156140;23;20273;-86
2023/09/22 12:03:15;;;;;;;2.30;1.57;;;18.20;99.90;;;;;;6206443;23;20248;-86
2023/09/22 12:05:41;;;;;;;1.47;1.20;;;17.90;99.90;;;;;;6231341;23;20221;-87
2023/09/22 12:08:10;;;;;;;3.23;1.80;;;17.80;99.90;;;;;;6156515;23;20165;-86
2023/09/22 12:10:35;;;;;;;1.40;1.30;;;17.40;99.90;;;;;;6158386;23;20163;-87
2023/09/22 12:13:02;;;;;;;1.37;1.27;;;17.00;99.90;;;;;;6206678;23;20205;-86
2023/09/22 12:15:29;;;;;;;2.20;1.23;;;16.60;99.90;;;;;;6182403;23;20189;-86
2023/09/22 12:17:55;;;;;;;1.30;0.77;;;16.60;99.90;;;;;;6208292;23;20197;-87
2023/09/22 12:20:21;;;;;;;1.03;0.93;;;16.50;99.90;;;;;;6182235;23;20305;-87
2023/09/22 12:22:47;;;;;;;0.93;0.80;;;16.40;99.90;;;;;;6181850;23;20247;-86
2023/09/22 12:25:15;;;;;;;2.07;1.27;;;16.60;99.90;;;;;;6204666;23;20197;-85
2023/09/22 12:27:41;;;;;;;0.80;0.80;;;16.80;99.90;;;;;;6179691;23;20650;-85
2023/09/22 12:30:07;;;;;;;1.40;1.30;;;17.00;99.90;;;;;;6180635;23;20197;-86
2023/09/22 12:32:33;;;;;;;1.27;1.17;;;17.60;99.90;;;;;;6155803;23;20212;-86
2023/09/22 12:35:00;;;;;;;1.10;1.00;;;17.90;99.90;;;;;;6155659;23;20166;-86
2023/09/22 12:37:26;;;;;;;1.30;1.00;;;17.90;99.90;;;;;;6182346;23;20664;-86
2023/09/22 12:39:51;;;;;;;0.97;0.97;;;17.90;99.90;;;;;;6181193;23;20308;-86
2023/09/22 12:42:18;;;;;;;1.30;1.20;;;17.90;99.90;;;;;;6155413;23;20208;-86
2023/09/22 12:44:44;;;;;;;0.87;0.80;;;17.90;99.90;;;;;;6181900;23;20267;-86
2023/09/22 12:47:09;;;;;;;2.40;0.87;;;18.00;99.90;;;;;;6156349;23;20166;-86
2023/09/22 12:49:35;;;;;;;3.23;0.63;;;18.00;99.90;;;;;;6152628;23;20208;-86